Time;durP1;ratioP1;P1;durP2;ratioP2;P2;SDS_P1;SDS_P2;PMS_P1;PMS_P2;Temp;Humidity;BMP_temperature;BMP_pressure;BME280_temperature;BME280_humidity;BME280_pressure;Samples;Min_cycle;Max_cycle;Signal;HPM_P1;HPM_P2
2022/09/13 00:01:38;;;;;;;4.10;1.90;;;;;12.50;97168.40;;;;111120;1247;41612;-61
2022/09/13 00:04:07;;;;;;;3.30;1.80;;;;;12.50;97171.20;;;;111118;1249;41181;-61
2022/09/13 00:06:37;;;;;;;5.50;2.20;;;;;12.42;97162.20;;;;111082;1250;41606;-61
2022/09/13 00:09:06;;;;;;;4.60;2.20;;;;;12.40;97161.60;;;;111120;1249;41485;-61
2022/09/13 00:11:36;;;;;;;3.90;2.10;;;;;12.40;97165.60;;;;110904;1250;42216;-62
2022/09/13 00:14:06;;;;;;;6.80;2.10;;;;;12.40;97163.20;;;;111165;1248;43283;-62
2022/09/13 00:16:37;;;;;;;5.20;2.20;;;;;12.40;97159.20;;;;111131;1248;41255;-61
2022/09/13 00:19:07;;;;;;;;;;;;;12.40;97158.20;;;;111122;1247;41514;-60
2022/09/13 00:21:36;;;;;;;5.50;2.20;;;;;12.30;97162.40;;;;111050;1250;41131;-61
2022/09/13 00:24:07;;;;;;;5.80;2.20;;;;;12.30;97155.60;;;;111050;1247;41154;-61
2022/09/13 00:26:36;;;;;;;5.70;2.20;;;;;12.30;97157.80;;;;111073;1250;41241;-61
2022/09/13 00:29:06;;;;;;;3.90;1.90;;;;;12.20;97154.80;;;;110991;1250;41150;-61
2022/09/13 00:31:36;;;;;;;4.60;2.10;;;;;12.20;97155.60;;;;111077;1248;41261;-61
2022/09/13 00:34:05;;;;;;;5.30;2.30;;;;;12.20;97154.40;;;;111111;1249;41153;-61
2022/09/13 00:36:35;;;;;;;7.10;2.10;;;;;12.20;97157.20;;;;111141;1250;41719;-61
2022/09/13 00:39:09;;;;;;;5.50;2.20;;;;;12.20;97150.60;;;;111156;1247;41237;-61
2022/09/13 00:41:40;;;;;;;4.70;2.00;;;;;12.20;97149.00;;;;111046;1247;41176;-62
2022/09/13 00:44:44;;;;;;;3.40;1.70;;;;;12.10;97146.60;;;;111087;1247;41627;-62
2022/09/13 00:47:20;;;;;;;4.90;2.20;;;;;12.10;97147.20;;;;111074;1247;41141;-61
2022/09/13 00:49:54;;;;;;;5.40;2.20;;;;;12.10;97146.80;;;;111060;1250;41259;-61
2022/09/13 00:52:26;;;;;;;5.90;2.60;;;;;12.02;97149.40;;;;111126;1247;40881;-61
2022/09/13 00:55:07;;;;;;;3.50;1.90;;;;;12.00;97145.20;;;;110903;1250;41264;-61
2022/09/13 00:57:38;;;;;;;5.20;2.10;;;;;12.00;97144.60;;;;111073;1247;41944;-61
2022/09/13 01:00:12;;;;;;;4.80;2.20;;;;;12.00;97149.20;;;;111088;1247;42185;-61
2022/09/13 01:02:57;;;;;;;5.30;2.20;;;;;11.90;97146.60;;;;111113;1250;41134;-61
2022/09/13 01:05:34;;;;;;;4.60;1.80;;;;;11.84;97151.80;;;;111003;1247;41115;-61
2022/09/13 01:08:11;;;;;;;5.40;2.00;;;;;11.80;97151.40;;;;111024;1250;41300;-61
2022/09/13 01:10:42;;;;;;;4.20;1.90;;;;;11.70;97146.20;;;;111096;1250;41266;-61
2022/09/13 01:13:19;;;;;;;4.50;2.20;;;;;11.66;97144.20;;;;111079;1250;42434;-61
2022/09/13 01:15:49;;;;;;;3.60;1.80;;;;;11.60;97149.00;;;;111046;1250;41147;-61
2022/09/13 01:18:20;;;;;;;3.10;1.70;;;;;11.50;97146.20;;;;110925;1250;41141;-61
2022/09/13 01:21:20;;;;;;;5.30;2.20;;;;;11.50;97147.80;;;;111113;1250;41202;-61
2022/09/13 01:24:04;;;;;;;6.00;2.50;;;;;11.40;97144.40;;;;111045;1250;42059;-61
2022/09/13 01:27:11;;;;;;;5.50;2.40;;;;;11.26;97146.20;;;;111132;1250;41147;-61
2022/09/13 01:30:20;;;;;;;6.50;2.50;;;;;11.10;97149.60;;;;111057;1249;41986;-61
2022/09/13 01:33:21;;;;;;;5.90;2.40;;;;;11.00;97143.20;;;;110991;1250;41601;-61
2022/09/13 01:36:31;;;;;;;6.00;2.40;;;;;10.80;97147.20;;;;111171;1249;41136;-61
2022/09/13 01:39:07;;;;;;;5.20;2.30;;;;;10.70;97145.20;;;;110468;1256;41158;-61
2022/09/13 01:41:41;;;;;;;4.50;2.30;;;;;10.70;97153.00;;;;110924;1248;41270;-61
2022/09/13 01:44:42;;;;;;;4.60;2.10;;;;;10.62;97148.20;;;;111013;1247;41467;-61
2022/09/13 01:47:24;;;;;;;5.70;2.40;;;;;10.60;97146.80;;;;111091;1248;41701;-61
2022/09/13 01:50:19;;;;;;;5.00;2.20;;;;;10.58;97155.20;;;;111075;1250;43004;-61
2022/09/13 01:53:04;;;;;;;7.90;2.90;;;;;10.40;97152.20;;;;111123;1249;42548;-62
2022/09/13 01:55:58;;;;;;;9.00;3.20;;;;;10.30;97153.20;;;;111097;1250;41145;-61
2022/09/13 01:58:41;;;;;;;7.40;2.90;;;;;10.20;97155.40;;;;111105;1248;41435;-62
2022/09/13 02:01:33;;;;;;;8.50;3.20;;;;;10.20;97151.60;;;;111201;1249;41241;-61
2022/09/13 02:04:17;;;;;;;3.80;2.00;;;;;10.20;97149.20;;;;111055;1251;41149;-60
2022/09/13 02:07:13;;;;;;;5.40;2.30;;;;;10.20;97146.00;;;;110800;1251;41137;-62
2022/09/13 02:09:50;;;;;;;3.90;2.00;;;;;10.20;97140.60;;;;111173;1249;41160;-61
2022/09/13 02:12:27;;;;;;;4.10;1.90;;;;;10.12;97138.60;;;;111132;1250;41152;-61
2022/09/13 02:15:07;;;;;;;5.20;2.10;;;;;10.10;97136.40;;;;110730;1251;41156;-61
2022/09/13 02:17:42;;;;;;;5.70;2.50;;;;;10.10;97132.20;;;;110864;1251;41171;-61
2022/09/13 02:20:24;;;;;;;4.90;2.00;;;;;10.10;97129.80;;;;110741;1251;41147;-61
2022/09/13 02:22:58;;;;;;;4.70;2.20;;;;;10.10;97136.80;;;;111123;1247;41124;-61
2022/09/13 02:25:30;;;;;;;4.00;2.10;;;;;10.00;97129.00;;;;111148;1249;41356;-62
2022/09/13 02:28:04;;;;;;;4.40;2.10;;;;;10.00;97131.00;;;;111167;1247;41175;-61
2022/09/13 02:30:39;;;;;;;3.70;1.90;;;;;10.00;97122.40;;;;111057;1250;41622;-62
2022/09/13 02:33:21;;;;;;;4.20;2.10;;;;;10.00;97117.20;;;;110748;1251;41145;-61
2022/09/13 02:35:58;;;;;;;5.90;2.40;;;;;10.00;97117.20;;;;111148;1250;41489;-60
2022/09/13 02:38:44;;;;;;;6.30;2.30;;;;;9.90;97117.20;;;;111131;1248;41169;-61
2022/09/13 02:41:57;;;;;;;3.70;2.00;;;;;9.80;97123.00;;;;111081;1250;42845;-61
2022/09/13 02:44:37;;;;;;;4.70;2.00;;;;;9.80;97122.60;;;;110993;1250;41600;-62
2022/09/13 02:47:29;;;;;;;5.90;2.30;;;;;9.80;97117.60;;;;111074;1248;41246;-61
2022/09/13 02:50:27;;;;;;;4.60;2.10;;;;;9.80;97121.00;;;;111151;1249;41236;-61
2022/09/13 02:53:09;;;;;;;4.00;1.90;;;;;9.80;97123.60;;;;111116;1250;41162;-61
2022/09/13 02:55:44;;;;;;;3.90;2.00;;;;;9.80;97117.60;;;;111114;1249;41773;-62
2022/09/13 02:58:49;;;;;;;4.80;2.10;;;;;9.80;97120.80;;;;111050;1250;41179;-61
2022/09/13 03:01:20;;;;;;;5.50;2.10;;;;;9.80;97115.80;;;;110875;1250;41612;-61
2022/09/13 03:03:53;;;;;;;4.80;2.30;;;;;9.80;97118.00;;;;111270;1248;41143;-61
2022/09/13 03:06:24;;;;;;;8.80;3.20;;;;;9.80;97110.40;;;;111124;1248;41946;-61
2022/09/13 03:08:54;;;;;;;6.90;2.80;;;;;9.74;97109.00;;;;110812;1248;41174;-61
2022/09/13 03:11:51;;;;;;;7.70;3.00;;;;;9.80;97105.60;;;;111133;1249;41468;-61
2022/09/13 03:14:55;;;;;;;5.40;2.40;;;;;9.80;97103.40;;;;111127;1250;42319;-61
2022/09/13 03:17:37;;;;;;;7.00;3.00;;;;;9.76;97108.20;;;;111238;1247;41132;-61
2022/09/13 03:20:40;;;;;;;5.10;2.40;;;;;9.70;97110.80;;;;111163;1250;41131;-60
2022/09/13 03:23:41;;;;;;;7.00;2.80;;;;;9.78;97111.20;;;;110914;1251;41170;-60
2022/09/13 03:26:22;;;;;;;5.60;2.60;;;;;9.80;97111.60;;;;111173;1248;40867;-60
2022/09/13 03:29:20;;;;;;;4.50;2.20;;;;;9.84;97117.20;;;;111037;1251;41602;-62
2022/09/13 03:32:28;;;;;;;6.60;2.40;;;;;9.90;97112.20;;;;111094;1248;41757;-61
2022/09/13 03:35:24;;;;;;;4.50;2.30;;;;;9.90;97109.40;;;;111062;1248;41134;-61
2022/09/13 03:37:57;;;;;;;5.40;2.60;;;;;10.00;97107.40;;;;111062;1250;41158;-61
2022/09/13 03:40:44;;;;;;;5.60;2.50;;;;;9.90;97113.20;;;;111064;1247;41207;-62
2022/09/13 03:43:43;;;;;;;5.00;2.20;;;;;9.92;97118.80;;;;110872;1251;41305;-59
2022/09/13 03:46:34;;;;;;;5.60;2.60;;;;;9.96;97119.40;;;;110975;1250;41322;-60
2022/09/13 03:49:12;;;;;;;4.60;2.20;;;;;10.00;97121.80;;;;111119;1250;41750;-61
2022/09/13 03:51:47;;;;;;;4.30;2.20;;;;;9.96;97120.60;;;;111229;1251;41169;-61
2022/09/13 03:54:30;;;;;;;7.00;2.30;;;;;9.96;97122.40;;;;111092;1249;42374;-61
2022/09/13 03:57:12;;;;;;;5.30;2.30;;;;;9.90;97125.00;;;;111228;1250;41264;-62
2022/09/13 03:59:48;;;;;;;5.10;2.30;;;;;9.90;97132.00;;;;111130;1250;41146;-61
2022/09/13 04:02:18;;;;;;;4.50;2.10;;;;;9.90;97128.40;;;;111060;1248;41141;-61
2022/09/13 04:04:47;;;;;;;4.80;2.20;;;;;9.80;97128.00;;;;111065;1250;41815;-61
2022/09/13 04:07:21;;;;;;;5.10;2.40;;;;;9.80;97129.60;;;;111193;1248;41153;-60
2022/09/13 04:09:51;;;;;;;5.90;2.50;;;;;9.74;97130.40;;;;111182;1249;41165;-60
2022/09/13 04:12:21;;;;;;;4.90;2.30;;;;;9.70;97132.40;;;;111096;1250;41253;-60
2022/09/13 04:14:51;;;;;;;6.30;2.90;;;;;9.70;97137.60;;;;111069;1249;41258;-62
2022/09/13 04:17:21;;;;;;;7.00;3.10;;;;;9.70;97130.80;;;;111085;1250;41166;-62
2022/09/13 04:19:50;;;;;;;7.50;3.30;;;;;9.60;97131.80;;;;111065;1248;41152;-61
2022/09/13 04:22:19;;;;;;;11.60;3.20;;;;;9.60;97130.20;;;;111087;1248;41260;-59
2022/09/13 04:24:48;;;;;;;7.40;3.20;;;;;9.62;97130.40;;;;111106;1248;41258;-60
2022/09/13 04:27:18;;;;;;;7.30;3.20;;;;;9.52;96983.80;;;;111069;1250;41713;-59
2022/09/13 04:29:47;;;;;;;7.40;3.50;;;;;10.44;97030.60;;;;111092;1248;41179;-60
2022/09/13 04:32:16;;;;;;;7.90;3.50;;;;;11.10;97089.00;;;;111114;1250;41252;-60
2022/09/13 04:34:46;;;;;;;7.30;3.10;;;;;11.16;97127.60;;;;111063;1248;42017;-60
2022/09/13 04:37:15;;;;;;;7.10;3.00;;;;;10.70;97127.20;;;;111125;1250;42355;-61
2022/09/13 04:39:44;;;;;;;8.10;3.40;;;;;10.38;97124.60;;;;110978;1250;41144;-61
2022/09/13 04:42:14;;;;;;;6.60;3.10;;;;;10.02;97127.00;;;;111079;1247;41145;-61
2022/09/13 04:44:43;;;;;;;6.70;2.60;;;;;9.94;97126.40;;;;111088;1250;41137;-61
2022/09/13 04:47:12;;;;;;;5.40;2.60;;;;;10.22;97091.20;;;;111057;1249;41122;-61
2022/09/13 04:49:41;;;;;;;6.90;3.10;;;;;10.82;97082.40;;;;111014;1249;41180;-61
2022/09/13 04:52:10;;;;;;;7.30;3.30;;;;;11.90;97057.00;;;;110979;1250;41143;-61
2022/09/13 04:54:40;;;;;;;7.30;3.00;;;;;13.08;97049.60;;;;111116;1249;41254;-61
2022/09/13 04:57:11;;;;;;;10.60;2.70;;;;;14.26;97056.00;;;;111067;1247;42425;-61
2022/09/13 04:59:41;;;;;;;6.40;2.80;;;;;15.34;97054.20;;;;111051;1250;41165;-62
2022/09/13 05:02:10;;;;;;;7.90;3.10;;;;;16.34;97047.40;;;;111051;1250;42093;-62
2022/09/13 05:04:39;;;;;;;8.40;3.40;;;;;17.20;97050.80;;;;111085;1249;41152;-62
2022/09/13 05:07:08;;;;;;;5.90;2.60;;;;;17.80;97053.00;;;;111156;1247;41152;-61
2022/09/13 05:09:38;;;;;;;10.50;2.90;;;;;18.48;97051.80;;;;111091;1248;41238;-62
2022/09/13 05:12:07;;;;;;;5.20;2.60;;;;;19.10;97049.80;;;;111062;1248;41132;-62
2022/09/13 05:14:36;;;;;;;5.10;2.40;;;;;19.60;97059.80;;;;111143;1250;41144;-62
2022/09/13 05:17:05;;;;;;;6.70;2.40;;;;;20.20;97059.20;;;;111091;1247;41247;-62
2022/09/13 05:19:34;;;;;;;8.60;3.30;;;;;20.60;97058.00;;;;111217;1249;41628;-62
2022/09/13 05:22:03;;;;;;;7.10;2.90;;;;;20.76;97063.00;;;;111138;1248;41319;-62
2022/09/13 05:24:33;;;;;;;8.60;3.90;;;;;21.10;97070.20;;;;111143;1248;41382;-61
2022/09/13 05:27:02;;;;;;;9.90;3.90;;;;;20.66;97065.40;;;;111031;1247;42174;-61
2022/09/13 05:29:31;;;;;;;10.70;5.00;;;;;21.20;97069.80;;;;109848;1249;1619899;-61
2022/09/13 05:32:00;;;;;;;8.90;4.20;;;;;21.24;97079.00;;;;111066;1248;41152;-61
2022/09/13 05:34:29;;;;;;;8.40;3.50;;;;;20.94;97075.80;;;;111067;1247;41941;-62
2022/09/13 05:36:59;;;;;;;7.20;2.80;;;;;21.30;97079.00;;;;111078;1247;41163;-63
2022/09/13 05:39:28;;;;;;;7.40;3.20;;;;;21.70;97085.20;;;;111115;1248;41367;-62
2022/09/13 05:42:15;;;;;;;7.00;2.80;;;;;21.84;97083.60;;;;110928;1251;41174;-62
2022/09/13 05:44:45;;;;;;;6.10;2.50;;;;;22.50;97087.00;;;;111013;1248;41616;-63
2022/09/13 05:47:14;;;;;;;6.40;2.40;;;;;23.00;97086.20;;;;111083;1248;41251;-61
2022/09/13 05:49:42;;;;;;;9.00;3.00;;;;;23.30;97077.40;;;;111072;1248;41466;-62
2022/09/13 05:52:31;;;;;;;7.50;2.80;;;;;23.40;97079.80;;;;111102;1248;42346;-62
2022/09/13 05:55:00;;;;;;;4.50;2.20;;;;;23.26;97080.80;;;;111184;1247;41143;-62
2022/09/13 05:57:30;;;;;;;11.80;2.40;;;;;23.60;97087.60;;;;111070;1250;41254;-63
2022/09/13 05:59:58;;;;;;;4.40;2.00;;;;;24.10;97090.40;;;;111100;1250;41582;-62
2022/09/13 06:02:27;;;;;;;5.60;2.10;;;;;24.60;97085.00;;;;111039;1248;41191;-63
2022/09/13 06:04:57;;;;;;;5.20;2.10;;;;;25.04;97090.00;;;;111109;1247;41274;-63
2022/09/13 06:07:27;;;;;;;5.30;2.20;;;;;25.32;97086.20;;;;111087;1247;41732;-62
2022/09/13 06:09:57;;;;;;;5.00;2.10;;;;;24.70;97089.60;;;;111217;1251;41138;-63
2022/09/13 06:12:26;;;;;;;4.30;1.90;;;;;25.00;97094.60;;;;111147;1249;41734;-63
2022/09/13 06:14:55;;;;;;;5.00;2.00;;;;;25.46;97096.00;;;;111146;1248;41256;-63
2022/09/13 06:17:24;;;;;;;5.60;1.90;;;;;25.90;97101.60;;;;111231;1247;42132;-63
2022/09/13 06:19:53;;;;;;;3.20;1.70;;;;;26.30;97091.60;;;;111106;1250;41146;-63
2022/09/13 06:22:22;;;;;;;5.70;1.90;;;;;26.80;97090.60;;;;110997;1249;41248;-62
2022/09/13 06:24:51;;;;;;;4.10;1.80;;;;;27.10;97091.20;;;;110733;1250;41170;-64
2022/09/13 06:27:20;;;;;;;4.40;2.00;;;;;26.96;97087.20;;;;111060;1249;41151;-63
2022/09/13 06:29:49;;;;;;;2.20;1.50;;;;;27.02;97094.40;;;;111109;1249;41148;-63
2022/09/13 06:32:18;;;;;;;4.60;1.70;;;;;27.10;97093.60;;;;111106;1248;41147;-63
2022/09/13 06:34:47;;;;;;;3.40;1.60;;;;;26.98;97117.00;;;;111034;1247;42546;-63
2022/09/13 06:37:15;;;;;;;6.00;1.70;;;;;26.10;97092.20;;;;111076;1248;42114;-64
2022/09/13 06:39:44;;;;;;;2.90;1.60;;;;;26.20;97099.00;;;;111054;1249;41696;-63
2022/09/13 06:42:13;;;;;;;1.90;1.40;;;;;26.60;97106.40;;;;111074;1249;41135;-64
2022/09/13 06:44:42;;;;;;;2.90;1.40;;;;;26.84;97112.80;;;;111147;1248;41243;-64
2022/09/13 06:47:12;;;;;;;3.00;1.60;;;;;26.74;97107.40;;;;111130;1248;41161;-62
2022/09/13 06:49:41;;;;;;;2.30;1.40;;;;;26.40;97104.80;;;;111169;1247;41157;-64
2022/09/13 06:52:10;;;;;;;3.90;1.70;;;;;26.80;97103.00;;;;111070;1249;41138;-63
2022/09/13 06:54:39;;;;;;;3.00;1.50;;;;;26.84;97107.00;;;;111055;1247;41256;-64
2022/09/13 06:57:08;;;;;;;4.00;1.60;;;;;27.42;97110.80;;;;110965;1249;41140;-63
2022/09/13 06:59:38;;;;;;;2.60;1.50;;;;;27.90;97114.20;;;;110988;1248;41309;-63
2022/09/13 07:02:09;;;;;;;2.90;1.50;;;;;27.62;97119.80;;;;111125;1247;41351;-63
2022/09/13 07:04:38;;;;;;;2.60;1.50;;;;;27.70;97107.80;;;;111044;1247;41142;-62
2022/09/13 07:07:06;;;;;;;3.70;1.60;;;;;28.30;97112.40;;;;111072;1248;41417;-63
2022/09/13 07:09:35;;;;;;;1.70;1.20;;;;;28.90;97114.40;;;;111204;1248;42378;-63
2022/09/13 07:12:06;;;;;;;2.10;1.30;;;;;28.74;97135.20;;;;111218;1248;41268;-63
2022/09/13 07:14:34;;;;;;;1.90;1.40;;;;;27.98;97144.60;;;;111174;1247;41143;-63
2022/09/13 07:17:03;;;;;;;2.00;1.30;;;;;27.10;97146.80;;;;111038;1248;41190;-63
2022/09/13 07:19:32;;;;;;;3.50;1.60;;;;;26.24;97154.00;;;;111045;1249;41136;-62
2022/09/13 07:22:01;;;;;;;3.10;1.50;;;;;25.34;97157.20;;;;111038;1248;41146;-62
2022/09/13 07:24:30;;;;;;;3.10;1.60;;;;;24.64;97157.60;;;;111006;1248;41341;-63
2022/09/13 07:26:58;;;;;;;3.30;1.50;;;;;23.96;97162.20;;;;111097;1248;41266;-63
2022/09/13 07:29:28;;;;;;;4.40;1.60;;;;;23.40;97163.40;;;;111146;1247;41612;-63
2022/09/13 07:31:57;;;;;;;4.30;1.50;;;;;23.02;97169.20;;;;111107;1248;41265;-63
2022/09/13 07:34:28;;;;;;;3.90;1.60;;;;;22.68;97170.40;;;;110789;1251;41387;-62
2022/09/13 07:36:57;;;;;;;3.10;1.60;;;;;22.12;97167.80;;;;111205;1248;41933;-63
2022/09/13 07:39:27;;;;;;;6.10;1.70;;;;;21.70;97169.00;;;;111057;1247;41163;-62
2022/09/13 07:41:57;;;;;;;5.10;2.10;;;;;21.54;97170.60;;;;111080;1247;41899;-62
2022/09/13 07:44:25;;;;;;;3.70;1.70;;;;;21.12;97171.00;;;;111023;1248;41264;-62
2022/09/13 07:46:54;;;;;;;9.20;2.00;;;;;21.04;97175.80;;;;111064;1247;41179;-63
2022/09/13 07:49:23;;;;;;;4.10;1.80;;;;;21.04;97179.00;;;;111146;1247;41167;-62
2022/09/13 07:51:52;;;;;;;3.20;1.80;;;;;21.10;97178.00;;;;111297;1248;41160;-62
2022/09/13 07:54:20;;;;;;;4.10;1.80;;;;;21.10;97180.40;;;;110815;1250;41267;-63
2022/09/13 07:56:51;;;;;;;3.20;1.60;;;;;21.30;97186.00;;;;111130;1250;41828;-62
2022/09/13 07:59:20;;;;;;;6.10;1.70;;;;;21.50;97191.20;;;;111203;1248;41267;-62
2022/09/13 08:01:50;;;;;;;2.40;1.50;;;;;21.50;97190.00;;;;111102;1247;42705;-62
2022/09/13 08:04:23;;;;;;;4.80;1.80;;;;;21.30;97192.80;;;;111123;1248;41147;-64
2022/09/13 08:06:52;;;;;;;3.80;1.90;;;;;21.00;97192.40;;;;110814;1250;41155;-63
2022/09/13 08:09:21;;;;;;;2.90;1.60;;;;;20.56;97196.80;;;;111114;1248;41266;-63
2022/09/13 08:11:51;;;;;;;3.50;1.60;;;;;20.26;97197.20;;;;111017;1247;41623;-62
2022/09/13 08:14:22;;;;;;;3.40;1.70;;;;;20.10;97197.20;;;;111141;1247;41810;-63
2022/09/13 08:16:55;;;;;;;3.10;1.70;;;;;20.00;97194.60;;;;111224;1247;41143;-62
2022/09/13 08:19:25;;;;;;;2.80;1.50;;;;;20.10;97196.40;;;;111139;1248;41136;-63
2022/09/13 08:21:54;;;;;;;3.70;1.50;;;;;20.22;97192.20;;;;111092;1248;41161;-63
2022/09/13 08:24:22;;;;;;;5.00;1.80;;;;;20.40;97190.60;;;;111100;1250;41364;-62
2022/09/13 08:26:54;;;;;;;4.20;1.80;;;;;20.58;97195.60;;;;111039;1248;42004;-62
2022/09/13 08:29:24;;;;;;;2.80;1.60;;;;;20.60;97190.80;;;;111169;1249;41192;-63
2022/09/13 08:31:53;;;;;;;5.50;1.80;;;;;20.70;97188.00;;;;111172;1249;41382;-63
2022/09/13 08:34:22;;;;;;;2.80;1.50;;;;;20.52;97193.40;;;;111177;1247;41483;-62
2022/09/13 08:36:51;;;;;;;2.80;1.50;;;;;20.30;97194.60;;;;111085;1248;41134;-62
2022/09/13 08:39:20;;;;;;;3.00;1.50;;;;;20.24;97194.60;;;;111079;1250;41166;-62
2022/09/13 08:42:03;;;;;;;2.80;1.40;;;;;20.30;97197.60;;;;111055;1248;41727;-62
2022/09/13 08:44:47;;;;;;;3.00;1.50;;;;;20.30;97201.60;;;;111003;1250;41150;-62
2022/09/13 08:47:31;;;;;;;3.30;1.40;;;;;20.10;97207.40;;;;111066;1248;41585;-62
2022/09/13 08:50:05;;;;;;;1.70;1.30;;;;;19.96;97206.40;;;;111116;1248;41150;-62
2022/09/13 08:52:40;;;;;;;3.60;1.70;;;;;19.68;97209.40;;;;111045;1249;41767;-62
2022/09/13 08:55:32;;;;;;;2.70;1.30;;;;;19.58;97207.60;;;;111059;1249;41918;-62
2022/09/13 08:58:38;;;;;;;2.20;1.40;;;;;19.50;97205.00;;;;111060;1247;41281;-62
2022/09/13 09:01:14;;;;;;;2.50;1.30;;;;;19.50;97198.60;;;;111066;1248;41607;-62
2022/09/13 09:04:02;;;;;;;2.50;1.60;;;;;19.40;97198.80;;;;111072;1248;41143;-61
2022/09/13 09:06:33;;;;;;;3.00;1.60;;;;;19.20;97200.40;;;;111062;1248;41159;-61
2022/09/13 09:09:05;;;;;;;9.90;1.60;;;;;19.20;97201.40;;;;111033;1247;41124;-61
2022/09/13 09:11:52;;;;;;;2.90;1.30;;;;;19.20;97199.00;;;;111055;1248;41307;-63
2022/09/13 09:14:30;;;;;;;2.10;1.30;;;;;19.20;97197.40;;;;111048;1247;41278;-63
2022/09/13 09:17:05;;;;;;;3.00;1.50;;;;;19.34;97199.40;;;;111046;1248;41245;-62
2022/09/13 09:20:07;;;;;;;2.50;1.50;;;;;19.40;97196.20;;;;111053;1247;42275;-62
2022/09/13 09:22:36;;;;;;;2.30;1.40;;;;;19.40;97195.00;;;;111057;1248;41288;-62
2022/09/13 09:25:10;;;;;;;3.00;1.40;;;;;19.38;97191.40;;;;111060;1248;41139;-62
2022/09/13 09:27:39;;;;;;;1.90;1.50;;;;;19.36;97190.80;;;;111027;1249;41603;-62
2022/09/13 09:30:13;;;;;;;2.50;1.50;;;;;19.30;97191.40;;;;111023;1247;41170;-62
2022/09/13 09:33:19;;;;;;;5.30;1.40;;;;;19.30;97189.60;;;;111054;1248;42028;-62
2022/09/13 09:35:48;;;;;;;2.80;1.30;;;;;19.50;97191.60;;;;111114;1248;41145;-62
2022/09/13 09:38:36;;;;;;;2.30;1.40;;;;;19.70;97187.00;;;;111052;1248;41147;-63
2022/09/13 09:41:19;;;;;;;3.50;1.60;;;;;19.90;97189.60;;;;111033;1248;41956;-62
2022/09/13 09:44:11;;;;;;;3.30;1.40;;;;;19.92;97184.80;;;;111073;1247;41844;-63
2022/09/13 09:46:40;;;;;;;2.40;1.40;;;;;19.80;97186.60;;;;110945;1249;41149;-63
2022/09/13 09:52:14;;;;;;;2.80;1.40;;;;;20.18;97184.80;;;;111055;1248;41254;-63
2022/09/13 09:54:44;;;;;;;1.50;1.20;;;;;20.20;97188.40;;;;110823;1250;41592;-62
2022/09/13 09:57:13;;;;;;;2.00;1.40;;;;;20.16;97187.20;;;;111046;1248;41720;-62
2022/09/13 09:59:42;;;;;;;4.40;1.60;;;;;20.26;97186.60;;;;111045;1248;41150;-62
2022/09/13 10:02:17;;;;;;;3.10;1.40;;;;;20.34;97185.80;;;;111171;1248;42088;-62
2022/09/13 10:05:00;;;;;;;2.30;1.50;;;;;20.50;97183.60;;;;111134;1249;42364;-62
2022/09/13 10:07:33;;;;;;;2.70;1.50;;;;;20.40;97188.00;;;;110779;1250;41270;-62
2022/09/13 10:10:07;;;;;;;2.50;1.30;;;;;20.50;97184.00;;;;111077;1247;41238;-62
2022/09/13 10:12:37;;;;;;;4.20;1.60;;;;;20.60;97182.00;;;;111076;1248;43182;-62
2022/09/13 10:15:19;;;;;;;;;;;;;20.80;97179.20;;;;110740;1250;41150;-62
2022/09/13 10:18:11;;;;;;;2.70;1.40;;;;;20.90;97171.60;;;;111062;1247;41238;-63
2022/09/13 10:21:18;;;;;;;3.00;1.50;;;;;21.00;97172.20;;;;111002;1248;41586;-62
2022/09/13 10:23:52;;;;;;;1.90;1.20;;;;;21.32;97174.60;;;;111070;1248;41717;-63
2022/09/13 10:26:22;;;;;;;1.80;1.30;;;;;21.70;97167.20;;;;111069;1248;41149;-62
2022/09/13 10:29:09;;;;;;;1.80;1.30;;;;;21.84;97163.80;;;;110838;1250;41704;-62
2022/09/13 10:31:44;;;;;;;1.50;1.30;;;;;22.14;97170.20;;;;111085;1249;41259;-63
2022/09/13 10:34:30;;;;;;;1.50;1.20;;;;;22.20;97166.00;;;;111108;1247;41608;-63
2022/09/13 10:37:10;;;;;;;1.70;1.30;;;;;22.40;97161.40;;;;111156;1247;42188;-63
2022/09/13 10:40:04;;;;;;;1.50;1.20;;;;;22.72;97169.20;;;;111134;1247;42382;-63
2022/09/13 10:42:34;;;;;;;2.40;1.30;;;;;22.76;97168.00;;;;111143;1248;41150;-63
2022/09/13 10:45:07;;;;;;;3.50;1.30;;;;;23.12;97167.80;;;;110873;1247;41437;-63
2022/09/13 10:47:50;;;;;;;2.40;1.40;;;;;23.50;97161.20;;;;111059;1247;41510;-63
2022/09/13 10:50:26;;;;;;;2.30;1.20;;;;;23.72;97155.80;;;;111100;1248;41166;-62
2022/09/13 10:52:58;;;;;;;3.20;1.30;;;;;23.60;97155.00;;;;111141;1247;41127;-63
2022/09/13 10:55:31;;;;;;;1.20;1.10;;;;;23.50;97155.80;;;;111010;1248;41585;-63
2022/09/13 10:58:06;;;;;;;1.60;1.10;;;;;23.80;97152.20;;;;111074;1248;42292;-63
2022/09/13 11:00:53;;;;;;;2.70;1.20;;;;;24.10;97147.00;;;;111025;1248;41236;-63
2022/09/13 11:03:52;;;;;;;3.30;1.20;;;;;24.08;97145.00;;;;111085;1247;41259;-63
2022/09/13 11:06:26;;;;;;;1.90;1.20;;;;;24.10;97145.20;;;;111103;1247;41639;-64
2022/09/13 11:09:15;;;;;;;1.70;1.30;;;;;24.02;97138.60;;;;111055;1247;41725;-64
2022/09/13 11:12:05;;;;;;;3.20;1.20;;;;;24.10;97139.80;;;;111112;1248;41151;-63
2022/09/13 11:14:54;;;;;;;2.40;1.20;;;;;23.80;97143.60;;;;111053;1248;41554;-63
2022/09/13 11:17:36;;;;;;;1.50;1.10;;;;;23.52;97149.60;;;;111110;1247;42164;-62
2022/09/13 11:20:31;;;;;;;1.50;1.10;;;;;23.40;97143.80;;;;111043;1248;41195;-63
2022/09/13 11:23:01;;;;;;;2.20;1.30;;;;;23.50;97148.00;;;;111033;1247;41151;-64
2022/09/13 11:26:00;;;;;;;3.10;1.10;;;;;23.20;97145.80;;;;111025;1247;41138;-62
2022/09/13 11:28:43;;;;;;;1.20;1.10;;;;;23.42;97138.80;;;;110983;1250;41275;-63
2022/09/13 11:31:37;;;;;;;2.10;1.10;;;;;23.60;97136.40;;;;111204;1247;41158;-63
2022/09/13 11:34:37;;;;;;;1.70;1.20;;;;;23.40;97142.20;;;;111027;1247;41256;-63
2022/09/13 11:37:24;;;;;;;2.20;1.10;;;;;23.40;97134.40;;;;111080;1248;41141;-63
2022/09/13 11:40:12;;;;;;;1.20;1.10;;;;;23.70;97131.00;;;;111024;1248;41244;-63
2022/09/13 11:43:03;;;;;;;1.30;1.20;;;;;23.80;97127.60;;;;111113;1248;41341;-63
2022/09/13 11:45:56;;;;;;;2.50;1.20;;;;;23.50;97124.20;;;;111083;1248;41245;-63
2022/09/13 11:48:41;;;;;;;2.60;1.20;;;;;23.20;97131.80;;;;111064;1248;41194;-61
2022/09/13 11:51:20;;;;;;;2.50;1.40;;;;;23.10;97129.20;;;;111057;1247;41998;-63
2022/09/13 11:54:07;;;;;;;1.90;1.20;;;;;23.20;97128.60;;;;111110;1247;41153;-62
2022/09/13 11:56:42;;;;;;;2.30;1.40;;;;;22.88;97130.60;;;;111044;1248;41604;-63
2022/09/13 11:59:27;;;;;;;5.30;1.10;;;;;22.50;97133.00;;;;111085;1247;41980;-63
2022/09/13 12:01:58;;;;;;;1.40;1.10;;;;;22.30;97128.40;;;;111037;1248;41725;-63
2022/09/13 12:04:36;;;;;;;1.30;1.10;;;;;22.30;97127.80;;;;110996;1250;41192;-62
2022/09/13 12:07:11;;;;;;;1.80;1.10;;;;;22.30;97127.60;;;;111045;1247;42415;-63
2022/09/13 12:09:50;;;;;;;1.20;1.10;;;;;22.24;97127.00;;;;111090;1247;42171;-62
2022/09/13 12:12:29;;;;;;;2.10;1.20;;;;;22.30;97125.80;;;;111069;1248;41579;-62
2022/09/13 12:15:16;;;;;;;1.00;1.00;;;;;22.10;97121.60;;;;110855;1250;41727;-62
2022/09/13 12:17:58;;;;;;;2.50;1.20;;;;;21.90;97123.20;;;;110749;1248;41928;-62
2022/09/13 12:20:34;;;;;;;1.60;1.20;;;;;21.80;97120.00;;;;110963;1249;41724;-63
2022/09/13 12:23:11;;;;;;;1.20;1.00;;;;;21.70;97120.00;;;;111120;1250;41151;-63
2022/09/13 12:26:14;;;;;;;1.70;1.10;;;;;21.60;97124.00;;;;110802;1250;41265;-63
2022/09/13 12:29:32;;;;;;;2.50;1.40;;;;;21.50;97124.80;;;;111116;1248;41272;-63
2022/09/13 12:32:06;;;;;;;1.10;1.00;;;;;21.50;97131.20;;;;110610;1250;41255;-62
2022/09/13 12:34:44;;;;;;;2.20;1.30;;;;;21.30;97125.60;;;;111066;1248;41698;-62
2022/09/13 12:37:19;;;;;;;1.30;1.20;;;;;21.10;97123.80;;;;111028;1249;41173;-62
2022/09/13 12:40:08;;;;;;;1.60;1.20;;;;;20.90;97125.80;;;;111029;1248;41140;-62
2022/09/13 12:43:19;;;;;;;1.80;1.20;;;;;20.90;97126.40;;;;111080;1247;41256;-62
2022/09/13 12:46:08;;;;;;;2.10;1.20;;;;;21.00;97125.60;;;;110803;1247;41246;-63
2022/09/13 12:49:10;;;;;;;1.60;1.30;;;;;20.94;97126.20;;;;111114;1247;42864;-62
2022/09/13 12:51:42;;;;;;;1.20;1.10;;;;;20.90;97125.00;;;;111014;1248;41554;-62
2022/09/13 12:54:33;;;;;;;1.40;1.10;;;;;21.10;97123.00;;;;111045;1247;41258;-63
2022/09/13 12:57:11;;;;;;;2.40;1.30;;;;;21.30;97120.60;;;;111100;1247;41181;-63
2022/09/13 13:00:04;;;;;;;6.20;1.50;;;;;21.72;97115.20;;;;111049;1247;41736;-63
2022/09/13 13:02:36;;;;;;;3.00;1.30;;;;;22.00;97111.40;;;;111128;1247;41621;-63